sensor_id;sensor_type;location;lat;lon;timestamp;pressure;altitude;pressure_sealevel;temperature;humidity
69909;BME280;57190;47.918;8.112;2023-03-03T00:01:17;90769.19;;;-1.27;79.00
69909;BME280;57190;47.918;8.112;2023-03-03T00:03:43;90761.53;;;-1.35;78.74
69909;BME280;57190;47.918;8.112;2023-03-03T00:06:11;90759.50;;;-1.33;79.22
69909;BME280;57190;47.918;8.112;2023-03-03T00:08:37;90759.69;;;-1.35;79.06
69909;BME280;57190;47.918;8.112;2023-03-03T00:11:03;90759.69;;;-1.35;79.31
69909;BME280;57190;47.918;8.112;2023-03-03T00:13:30;90765.13;;;-1.36;79.22
69909;BME280;57190;47.918;8.112;2023-03-03T00:18:48;90765.09;;;-1.50;78.88
69909;BME280;57190;47.918;8.112;2023-03-03T00:21:34;90773.34;;;-1.53;79.31
69909;BME280;57190;47.918;8.112;2023-03-03T00:24:17;90773.34;;;-1.53;79.32
69909;BME280;57190;47.918;8.112;2023-03-03T00:26:45;90782.22;;;-1.47;79.12
69909;BME280;57190;47.918;8.112;2023-03-03T00:32:08;90769.53;;;-1.50;79.80
69909;BME280;57190;47.918;8.112;2023-03-03T00:34:37;90773.56;;;-1.48;79.79
69909;BME280;57190;47.918;8.112;2023-03-03T00:37:02;90771.56;;;-1.39;79.63
69909;BME280;57190;47.918;8.112;2023-03-03T00:39:37;90763.09;;;-1.34;79.57
69909;BME280;57190;47.918;8.112;2023-03-03T00:42:14;90773.41;;;-1.26;79.61
69909;BME280;57190;47.918;8.112;2023-03-03T00:44:59;90771.78;;;-1.20;78.86
69909;BME280;57190;47.918;8.112;2023-03-03T00:47:38;90769.19;;;-1.27;79.33
69909;BME280;57190;47.918;8.112;2023-03-03T00:52:43;90772.16;;;-1.37;79.11
69909;BME280;57190;47.918;8.112;2023-03-03T00:55:10;90769.56;;;-1.37;79.30
69909;BME280;57190;47.918;8.112;2023-03-03T00:57:36;90766.75;;;-1.35;79.83
69909;BME280;57190;47.918;8.112;2023-03-03T01:00:01;90773.19;;;-1.31;79.60
69909;BME280;57190;47.918;8.112;2023-03-03T01:02:27;90776.22;;;-1.28;80.11
69909;BME280;57190;47.918;8.112;2023-03-03T01:04:53;90771.78;;;-1.20;79.96
69909;BME280;57190;47.918;8.112;2023-03-03T01:07:21;90775.66;;;-1.16;79.93
69909;BME280;57190;47.918;8.112;2023-03-03T01:09:47;90770.22;;;-1.08;80.75
69909;BME280;57190;47.918;8.112;2023-03-03T01:12:13;90772.25;;;-0.97;80.37
69909;BME280;57190;47.918;8.112;2023-03-03T01:14:39;90774.47;;;-0.93;79.71
69909;BME280;57190;47.918;8.112;2023-03-03T01:17:05;90773.25;;;-0.91;80.00
69909;BME280;57190;47.918;8.112;2023-03-03T01:19:31;90775.66;;;-0.83;80.33
69909;BME280;57190;47.918;8.112;2023-03-03T01:21:57;90773.66;;;-0.81;79.62
69909;BME280;57190;47.918;8.112;2023-03-03T01:24:23;90775.06;;;-0.91;79.52
69909;BME280;57190;47.918;8.112;2023-03-03T01:26:48;90769.03;;;-0.99;80.52
69909;BME280;57190;47.918;8.112;2023-03-03T01:29:14;90773.25;;;-0.91;80.74
69909;BME280;57190;47.918;8.112;2023-03-03T01:31:39;90779.69;;;-0.93;80.04
69909;BME280;57190;47.918;8.112;2023-03-03T01:34:05;90771.03;;;-0.94;79.93
69909;BME280;57190;47.918;8.112;2023-03-03T01:36:31;90774.66;;;-0.95;80.12
69909;BME280;57190;47.918;8.112;2023-03-03T01:38:56;90771.44;;;-0.97;80.16
69909;BME280;57190;47.918;8.112;2023-03-03T01:41:22;90777.25;;;-1.02;79.97
69909;BME280;57190;47.918;8.112;2023-03-03T01:43:50;90772.41;;;-1.05;79.22
69909;BME280;57190;47.918;8.112;2023-03-03T01:49:09;90775.84;;;-1.11;79.82
69909;BME280;57190;47.918;8.112;2023-03-03T01:51:42;90777.06;;;-1.07;79.91
69909;BME280;57190;47.918;8.112;2023-03-03T01:54:34;90772.44;;;-0.98;80.08
69909;BME280;57190;47.918;8.112;2023-03-03T01:57:05;90775.69;;;-0.89;79.99
69909;BME280;57190;47.918;8.112;2023-03-03T01:59:36;90766.19;;;-0.84;79.64
69909;BME280;57190;47.918;8.112;2023-03-03T02:02:06;90765.00;;;-0.81;79.57
69909;BME280;57190;47.918;8.112;2023-03-03T02:04:34;90770.03;;;-0.86;79.98
69909;BME280;57190;47.918;8.112;2023-03-03T02:07:02;90763.38;;;-0.89;79.68
69909;BME280;57190;47.918;8.112;2023-03-03T02:09:46;90754.31;;;-1.00;79.56
69909;BME280;57190;47.918;8.112;2023-03-03T02:12:16;90755.91;;;-1.05;79.95
69909;BME280;57190;47.918;8.112;2023-03-03T02:14:43;90750.66;;;-1.12;79.56
69909;BME280;57190;47.918;8.112;2023-03-03T02:17:09;90744.03;;;-1.15;79.77
69909;BME280;57190;47.918;8.112;2023-03-03T02:20:06;90754.69;;;-1.16;79.58
69909;BME280;57190;47.918;8.112;2023-03-03T02:23:20;90745.63;;;-1.20;79.90
69909;BME280;57190;47.918;8.112;2023-03-03T02:28:23;90747.44;;;-1.21;79.32
69909;BME280;57190;47.918;8.112;2023-03-03T02:30:49;90740.00;;;-1.31;80.04
69909;BME280;57190;47.918;8.112;2023-03-03T02:33:14;90749.44;;;-1.23;80.28
69909;BME280;57190;47.918;8.112;2023-03-03T02:35:41;90752.09;;;-1.16;80.28
69909;BME280;57190;47.918;8.112;2023-03-03T02:38:16;90748.47;;;-1.15;80.62
69909;BME280;57190;47.918;8.112;2023-03-03T02:40:50;90740.59;;;-1.08;80.38
69909;BME280;57190;47.918;8.112;2023-03-03T02:43:20;90743.03;;;-1.07;81.50
69909;BME280;57190;47.918;8.112;2023-03-03T02:45:47;90739.59;;;-1.01;81.31
69909;BME280;57190;47.918;8.112;2023-03-03T02:48:13;90738.00;;;-0.95;81.21
69909;BME280;57190;47.918;8.112;2023-03-03T02:50:38;90738.63;;;-0.93;80.97
69909;BME280;57190;47.918;8.112;2023-03-03T02:53:03;90733.16;;;-0.98;80.55
69909;BME280;57190;47.918;8.112;2023-03-03T02:55:29;90739.41;;;-1.06;80.27
69909;BME280;57190;47.918;8.112;2023-03-03T02:57:54;90733.78;;;-1.09;80.75
69909;BME280;57190;47.918;8.112;2023-03-03T03:00:20;90743.00;;;-1.20;80.70
69909;BME280;57190;47.918;8.112;2023-03-03T03:02:45;90735.56;;;-1.23;80.78
69909;BME280;57190;47.918;8.112;2023-03-03T03:05:11;90737.19;;;-1.22;80.38
69909;BME280;57190;47.918;8.112;2023-03-03T03:07:37;90734.16;;;-1.19;80.27
69909;BME280;57190;47.918;8.112;2023-03-03T03:10:02;90739.41;;;-1.26;80.27
69909;BME280;57190;47.918;8.112;2023-03-03T03:12:28;90739.19;;;-1.24;80.47
69909;BME280;57190;47.918;8.112;2023-03-03T03:14:53;90739.56;;;-1.28;80.25
69909;BME280;57190;47.918;8.112;2023-03-03T03:17:19;90736.56;;;-1.24;80.94
69909;BME280;57190;47.918;8.112;2023-03-03T03:19:44;90732.53;;;-1.27;80.85
69909;BME280;57190;47.918;8.112;2023-03-03T03:22:10;90738.56;;;-1.27;80.91
69909;BME280;57190;47.918;8.112;2023-03-03T03:24:35;90729.13;;;-1.21;80.22
69909;BME280;57190;47.918;8.112;2023-03-03T03:27:00;90719.25;;;-1.25;80.60
69909;BME280;57190;47.918;8.112;2023-03-03T03:29:26;90727.31;;;-1.27;79.71
69909;BME280;57190;47.918;8.112;2023-03-03T03:31:51;90726.69;;;-1.36;80.56
69909;BME280;57190;47.918;8.112;2023-03-03T03:34:17;90725.28;;;-1.32;80.15
69909;BME280;57190;47.918;8.112;2023-03-03T03:36:42;90730.13;;;-1.35;80.55
69909;BME280;57190;47.918;8.112;2023-03-03T03:39:08;90724.47;;;-1.39;80.31
69909;BME280;57190;47.918;8.112;2023-03-03T03:41:33;90733.50;;;-1.48;80.26
69909;BME280;57190;47.918;8.112;2023-03-03T03:43:59;90740.97;;;-1.52;80.69
69909;BME280;57190;47.918;8.112;2023-03-03T03:46:24;90752.81;;;-1.49;80.76
69909;BME280;57190;47.918;8.112;2023-03-03T03:48:49;90754.25;;;-1.47;80.64
69909;BME280;57190;47.918;8.112;2023-03-03T03:51:15;90752.63;;;-1.48;80.98
69909;BME280;57190;47.918;8.112;2023-03-03T03:53:40;90750.22;;;-1.43;80.94
69909;BME280;57190;47.918;8.112;2023-03-03T03:56:06;90737.75;;;-1.40;81.22
69909;BME280;57190;47.918;8.112;2023-03-03T03:58:32;90734.13;;;-1.33;80.84
69909;BME280;57190;47.918;8.112;2023-03-03T04:01:05;90734.34;;;-1.28;81.11
69909;BME280;57190;47.918;8.112;2023-03-03T04:03:30;90732.34;;;-1.25;81.17
69909;BME280;57190;47.918;8.112;2023-03-03T04:05:56;90736.75;;;-1.39;80.42
69909;BME280;57190;47.918;8.112;2023-03-03T04:08:21;90736.53;;;-1.45;80.97
69909;BME280;57190;47.918;8.112;2023-03-03T04:10:47;90741.78;;;-1.45;80.96
69909;BME280;57190;47.918;8.112;2023-03-03T04:13:12;90739.94;;;-1.44;81.25
69909;BME280;57190;47.918;8.112;2023-03-03T04:15:38;90735.53;;;-1.44;81.32
69909;BME280;57190;47.918;8.112;2023-03-03T04:18:03;90751.84;;;-1.35;81.15
69909;BME280;57190;47.918;8.112;2023-03-03T04:20:28;90750.03;;;-1.34;81.34
69909;BME280;57190;47.918;8.112;2023-03-03T04:22:54;90747.63;;;-1.29;81.23
69909;BME280;57190;47.918;8.112;2023-03-03T04:25:21;90747.22;;;-1.33;81.77
69909;BME280;57190;47.918;8.112;2023-03-03T04:27:46;90752.47;;;-1.26;81.65
69909;BME280;57190;47.918;8.112;2023-03-03T04:30:13;90750.84;;;-1.20;81.45
69909;BME280;57190;47.918;8.112;2023-03-03T04:32:39;90756.66;;;-1.38;80.97
69909;BME280;57190;47.918;8.112;2023-03-03T04:35:05;90757.41;;;-1.58;80.62
69909;BME280;57190;47.918;8.112;2023-03-03T04:37:31;90760.78;;;-1.71;80.55
69909;BME280;57190;47.918;8.112;2023-03-03T04:39:56;90756.56;;;-1.79;80.75
69909;BME280;57190;47.918;8.112;2023-03-03T04:42:22;90755.97;;;-1.67;80.87
69909;BME280;57190;47.918;8.112;2023-03-03T04:44:47;90749.56;;;-1.65;81.22
69909;BME280;57190;47.918;8.112;2023-03-03T04:47:13;90749.97;;;-1.54;81.16
69909;BME280;57190;47.918;8.112;2023-03-03T04:49:38;90749.81;;;-1.53;81.34
69909;BME280;57190;47.918;8.112;2023-03-03T04:52:04;90761.88;;;-1.52;80.61
69909;BME280;57190;47.918;8.112;2023-03-03T04:54:30;90759.03;;;-1.64;80.76
69909;BME280;57190;47.918;8.112;2023-03-03T04:56:55;90756.56;;;-1.72;80.72
69909;BME280;57190;47.918;8.112;2023-03-03T04:59:20;90757.59;;;-1.73;80.96
69909;BME280;57190;47.918;8.112;2023-03-03T05:01:46;90758.19;;;-1.71;81.08
69909;BME280;57190;47.918;8.112;2023-03-03T05:04:11;90757.00;;;-1.68;81.07
69909;BME280;57190;47.918;8.112;2023-03-03T05:06:37;90757.00;;;-1.62;80.61
69909;BME280;57190;47.918;8.112;2023-03-03T05:09:02;90763.06;;;-1.61;80.75
69909;BME280;57190;47.918;8.112;2023-03-03T05:11:28;90753.00;;;-1.58;80.90
69909;BME280;57190;47.918;8.112;2023-03-03T05:13:53;90757.25;;;-1.50;80.66
69909;BME280;57190;47.918;8.112;2023-03-03T05:16:19;90770.13;;;-1.42;80.27
69909;BME280;57190;47.918;8.112;2023-03-03T05:18:44;90763.69;;;-1.46;80.33
69909;BME280;57190;47.918;8.112;2023-03-03T05:21:10;90765.31;;;-1.45;81.13
69909;BME280;57190;47.918;8.112;2023-03-03T05:23:36;90766.34;;;-1.39;80.39
69909;BME280;57190;47.918;8.112;2023-03-03T05:26:02;90766.53;;;-1.40;80.92
69909;BME280;57190;47.918;8.112;2023-03-03T05:28:28;90766.34;;;-1.39;81.35
69909;BME280;57190;47.918;8.112;2023-03-03T05:30:54;90774.00;;;-1.37;81.42
69909;BME280;57190;47.918;8.112;2023-03-03T05:33:19;90770.16;;;-1.35;80.92
69909;BME280;57190;47.918;8.112;2023-03-03T05:35:45;90771.78;;;-1.34;80.35
69909;BME280;57190;47.918;8.112;2023-03-03T05:38:11;90774.56;;;-1.49;80.01
69909;BME280;57190;47.918;8.112;2023-03-03T05:40:37;90775.75;;;-1.51;80.26
69909;BME280;57190;47.918;8.112;2023-03-03T05:43:03;90775.78;;;-1.45;80.64
69909;BME280;57190;47.918;8.112;2023-03-03T05:45:28;90776.00;;;-1.39;80.76
69909;BME280;57190;47.918;8.112;2023-03-03T05:47:54;90779.25;;;-1.31;80.64
69909;BME280;57190;47.918;8.112;2023-03-03T05:50:20;90777.44;;;-1.23;80.55
69909;BME280;57190;47.918;8.112;2023-03-03T05:52:47;90784.50;;;-1.17;80.72
69909;BME280;57190;47.918;8.112;2023-03-03T05:55:13;90781.09;;;-1.18;80.47
69909;BME280;57190;47.918;8.112;2023-03-03T05:57:39;90781.25;;;-1.19;80.12
69909;BME280;57190;47.918;8.112;2023-03-03T06:00:05;90784.47;;;-1.24;81.15
69909;BME280;57190;47.918;8.112;2023-03-03T06:02:32;90792.34;;;-1.17;80.55
69909;BME280;57190;47.918;8.112;2023-03-03T06:04:57;90784.50;;;-1.17;80.32
69909;BME280;57190;47.918;8.112;2023-03-03T06:07:23;90781.88;;;-1.17;80.55
69909;BME280;57190;47.918;8.112;2023-03-03T06:09:48;90790.53;;;-1.17;80.81
69909;BME280;57190;47.918;8.112;2023-03-03T06:12:14;90793.56;;;-1.13;80.33
69909;BME280;57190;47.918;8.112;2023-03-03T06:14:39;90798.63;;;-1.12;80.34
69909;BME280;57190;47.918;8.112;2023-03-03T06:17:05;90801.22;;;-1.12;80.73
69909;BME280;57190;47.918;8.112;2023-03-03T06:19:31;90800.81;;;-1.08;80.68
69909;BME280;57190;47.918;8.112;2023-03-03T06:21:56;90801.03;;;-1.03;80.82
69909;BME280;57190;47.918;8.112;2023-03-03T06:24:22;90791.16;;;-0.95;80.77
69909;BME280;57190;47.918;8.112;2023-03-03T06:26:50;90800.25;;;-0.84;80.77
69909;BME280;57190;47.918;8.112;2023-03-03T06:29:16;90793.41;;;-0.78;80.55
69909;BME280;57190;47.918;8.112;2023-03-03T06:31:42;90796.41;;;-0.74;80.33
69909;BME280;57190;47.918;8.112;2023-03-03T06:34:07;90803.50;;;-0.68;80.71
69909;BME280;57190;47.918;8.112;2023-03-03T06:36:33;90803.50;;;-0.68;80.69
69909;BME280;57190;47.918;8.112;2023-03-03T06:38:58;90807.91;;;-0.69;80.74
69909;BME280;57190;47.918;8.112;2023-03-03T06:41:25;90813.78;;;-0.67;81.02
69909;BME280;57190;47.918;8.112;2023-03-03T06:43:50;90816.38;;;-0.67;80.09
69909;BME280;57190;47.918;8.112;2023-03-03T06:46:16;90814.16;;;-0.70;79.91
69909;BME280;57190;47.918;8.112;2023-03-03T06:48:42;90819.41;;;-0.63;79.84
69909;BME280;57190;47.918;8.112;2023-03-03T06:51:19;90818.63;;;-0.64;80.39
69909;BME280;57190;47.918;8.112;2023-03-03T06:53:48;90820.22;;;-0.63;80.26
69909;BME280;57190;47.918;8.112;2023-03-03T06:56:23;90818.81;;;-0.65;79.83
69909;BME280;57190;47.918;8.112;2023-03-03T06:58:59;90823.25;;;-0.59;79.72
69909;BME280;57190;47.918;8.112;2023-03-03T07:01:35;90817.81;;;-0.57;79.91
69909;BME280;57190;47.918;8.112;2023-03-03T07:06:47;90820.63;;;-0.45;79.59
69909;BME280;57190;47.918;8.112;2023-03-03T07:09:27;90830.28;;;-0.39;80.08
69909;BME280;57190;47.918;8.112;2023-03-03T07:11:56;90834.72;;;-0.33;79.69
69909;BME280;57190;47.918;8.112;2023-03-03T07:14:25;90830.09;;;-0.31;79.92
69909;BME280;57190;47.918;8.112;2023-03-03T07:16:55;90835.34;;;-0.24;79.45
69909;BME280;57190;47.918;8.112;2023-03-03T07:19:33;90829.50;;;-0.20;78.87
69909;BME280;57190;47.918;8.112;2023-03-03T07:22:20;90828.06;;;-0.16;78.68
69909;BME280;57190;47.918;8.112;2023-03-03T07:24:58;90828.28;;;-0.10;78.91
69909;BME280;57190;47.918;8.112;2023-03-03T07:27:33;90828.47;;;0.02;78.50
69909;BME280;57190;47.918;8.112;2023-03-03T07:32:52;90836.50;;;0.20;78.42
69909;BME280;57190;47.918;8.112;2023-03-03T07:36:05;90838.28;;;0.26;78.11
69909;BME280;57190;47.918;8.112;2023-03-03T07:38:43;90843.94;;;0.23;78.13
69909;BME280;57190;47.918;8.112;2023-03-03T07:41:34;90845.72;;;0.29;78.07
69909;BME280;57190;47.918;8.112;2023-03-03T07:44:35;90845.13;;;0.34;78.31
69909;BME280;57190;47.918;8.112;2023-03-03T07:47:33;90851.38;;;0.40;78.98
69909;BME280;57190;47.918;8.112;2023-03-03T07:53:04;90850.91;;;0.56;78.82
69909;BME280;57190;47.918;8.112;2023-03-03T07:55:53;90859.94;;;0.74;78.55
69909;BME280;57190;47.918;8.112;2023-03-03T07:58:42;90864.34;;;0.80;77.32
69909;BME280;57190;47.918;8.112;2023-03-03T08:01:39;90865.97;;;0.81;77.28
69909;BME280;57190;47.918;8.112;2023-03-03T08:07:45;90872.19;;;1.00;77.68
69909;BME280;57190;47.918;8.112;2023-03-03T08:10:39;90879.97;;;1.14;77.63
69909;BME280;57190;47.918;8.112;2023-03-03T08:13:34;90875.72;;;1.19;78.05
69909;BME280;57190;47.918;8.112;2023-03-03T08:16:23;90870.63;;;1.24;78.67
69909;BME280;57190;47.918;8.112;2023-03-03T08:18:52;90870.56;;;1.38;77.67
69909;BME280;57190;47.918;8.112;2023-03-03T08:21:21;90878.00;;;1.41;78.04
69909;BME280;57190;47.918;8.112;2023-03-03T08:23:48;90880.84;;;1.39;77.12
69909;BME280;57190;47.918;8.112;2023-03-03T08:26:16;90877.03;;;1.35;77.60
69909;BME280;57190;47.918;8.112;2023-03-03T08:28:43;90889.16;;;1.36;77.48
69909;BME280;57190;47.918;8.112;2023-03-03T08:31:09;90886.34;;;1.38;77.26
69909;BME280;57190;47.918;8.112;2023-03-03T08:33:34;90884.34;;;1.33;77.68
69909;BME280;57190;47.918;8.112;2023-03-03T08:36:00;90890.56;;;1.39;77.69
69909;BME280;57190;47.918;8.112;2023-03-03T08:38:26;90889.34;;;1.41;77.67
69909;BME280;57190;47.918;8.112;2023-03-03T08:40:51;90883.41;;;1.53;77.31
69909;BME280;57190;47.918;8.112;2023-03-03T08:43:17;90881.34;;;1.62;77.15
69909;BME280;57190;47.918;8.112;2023-03-03T08:45:47;90881.50;;;1.67;76.98
69909;BME280;57190;47.918;8.112;2023-03-03T08:48:14;90885.09;;;1.72;77.23
69909;BME280;57190;47.918;8.112;2023-03-03T08:50:39;90885.06;;;1.79;77.25
69909;BME280;57190;47.918;8.112;2023-03-03T08:53:06;90892.47;;;1.89;76.83
69909;BME280;57190;47.918;8.112;2023-03-03T08:55:31;90887.16;;;1.96;77.05
69909;BME280;57190;47.918;8.112;2023-03-03T08:57:57;90882.41;;;2.04;76.54
69909;BME280;57190;47.918;8.112;2023-03-03T09:00:23;90886.72;;;2.24;75.94
69909;BME280;57190;47.918;8.112;2023-03-03T09:02:49;90884.31;;;2.41;75.28
69909;BME280;57190;47.918;8.112;2023-03-03T09:05:17;90878.94;;;2.55;75.31
69909;BME280;57190;47.918;8.112;2023-03-03T09:07:43;90892.56;;;2.70;74.92
69909;BME280;57190;47.918;8.112;2023-03-03T09:10:11;90884.19;;;2.73;74.03
69909;BME280;57190;47.918;8.112;2023-03-03T09:12:40;90885.75;;;2.81;73.35
69909;BME280;57190;47.918;8.112;2023-03-03T09:15:20;90887.88;;;2.91;73.51
69909;BME280;57190;47.918;8.112;2023-03-03T09:17:47;90892.63;;;3.01;73.21
69909;BME280;57190;47.918;8.112;2023-03-03T09:20:22;90883.91;;;3.00;72.04
69909;BME280;57190;47.918;8.112;2023-03-03T09:22:49;90890.22;;;2.99;72.36
69909;BME280;57190;47.918;8.112;2023-03-03T09:25:31;90897.38;;;3.10;72.72
69909;BME280;57190;47.918;8.112;2023-03-03T09:27:57;90892.03;;;3.17;71.18
69909;BME280;57190;47.918;8.112;2023-03-03T09:30:33;90892.69;;;3.31;71.83
69909;BME280;57190;47.918;8.112;2023-03-03T09:33:01;90895.44;;;3.36;71.69
69909;BME280;57190;47.918;8.112;2023-03-03T09:35:41;90893.66;;;3.49;70.53
69909;BME280;57190;47.918;8.112;2023-03-03T09:38:28;90893.06;;;3.65;70.13
69909;BME280;57190;47.918;8.112;2023-03-03T09:40:57;90894.16;;;3.88;69.83
69909;BME280;57190;47.918;8.112;2023-03-03T09:49:16;90900.44;;;4.41;66.99
69909;BME280;57190;47.918;8.112;2023-03-03T10:00:42;90894.00;;;4.72;66.28
69909;BME280;57190;47.918;8.112;2023-03-03T10:11:49;90912.16;;;4.69;66.14
69909;BME280;57190;47.918;8.112;2023-03-03T10:14:38;90912.84;;;4.64;65.48
69909;BME280;57190;47.918;8.112;2023-03-03T10:17:10;90911.00;;;4.65;66.13
69909;BME280;57190;47.918;8.112;2023-03-03T10:20:25;90901.09;;;4.84;65.95
69909;BME280;57190;47.918;8.112;2023-03-03T10:23:17;90913.75;;;5.06;65.10
69909;BME280;57190;47.918;8.112;2023-03-03T10:29:01;90914.97;;;5.27;64.86
69909;BME280;57190;47.918;8.112;2023-03-03T10:32:11;90913.59;;;5.24;64.29
69909;BME280;57190;47.918;8.112;2023-03-03T10:37:30;90906.34;;;5.31;63.97
69909;BME280;57190;47.918;8.112;2023-03-03T10:45:17;90914.19;;;5.55;63.66
69909;BME280;57190;47.918;8.112;2023-03-03T10:48:00;90911.38;;;5.74;63.34
69909;BME280;57190;47.918;8.112;2023-03-03T10:51:02;90912.50;;;5.78;63.07
69909;BME280;57190;47.918;8.112;2023-03-03T10:53:58;90914.91;;;5.79;62.83
69909;BME280;57190;47.918;8.112;2023-03-03T10:56:55;90914.13;;;5.79;62.15
69909;BME280;57190;47.918;8.112;2023-03-03T11:02:19;90911.44;;;5.62;63.41
69909;BME280;57190;47.918;8.112;2023-03-03T11:08:11;90908.28;;;5.65;62.24
69909;BME280;57190;47.918;8.112;2023-03-03T11:10:50;90911.53;;;5.84;63.71
69909;BME280;57190;47.918;8.112;2023-03-03T11:25:00;90912.13;;;5.86;62.55
69909;BME280;57190;47.918;8.112;2023-03-03T11:28:22;90912.03;;;5.81;60.42
69909;BME280;57190;47.918;8.112;2023-03-03T11:30:59;90918.00;;;5.88;61.25
69909;BME280;57190;47.918;8.112;2023-03-03T11:33:57;90912.59;;;6.12;59.98
69909;BME280;57190;47.918;8.112;2023-03-03T11:36:50;90909.63;;;6.25;60.99
69909;BME280;57190;47.918;8.112;2023-03-03T11:39:24;90911.81;;;6.28;59.62
69909;BME280;57190;47.918;8.112;2023-03-03T11:50:01;90905.16;;;6.43;58.30
69909;BME280;57190;47.918;8.112;2023-03-03T11:52:53;90901.78;;;6.48;58.22
69909;BME280;57190;47.918;8.112;2023-03-03T11:55:28;90899.00;;;6.71;58.77
69909;BME280;57190;47.918;8.112;2023-03-03T12:03:33;90892.41;;;7.35;56.14
69909;BME280;57190;47.918;8.112;2023-03-03T12:06:05;90894.91;;;7.42;56.30
69909;BME280;57190;47.918;8.112;2023-03-03T12:12:32;90894.28;;;6.96;54.71
69909;BME280;57190;47.918;8.112;2023-03-03T12:17:29;90897.09;;;6.89;56.14
69909;BME280;57190;47.918;8.112;2023-03-03T12:44:14;90884.84;;;6.66;54.03
69909;BME280;57190;47.918;8.112;2023-03-03T12:46:55;90877.28;;;6.74;53.69
69909;BME280;57190;47.918;8.112;2023-03-03T12:49:39;90873.44;;;6.65;54.10
69909;BME280;57190;47.918;8.112;2023-03-03T12:52:31;90864.91;;;6.80;53.89
69909;BME280;57190;47.918;8.112;2023-03-03T13:03:48;90865.63;;;7.37;52.31
69909;BME280;57190;47.918;8.112;2023-03-03T13:11:41;90860.31;;;7.59;52.25
69909;BME280;57190;47.918;8.112;2023-03-03T13:16:48;90871.50;;;7.89;51.09
69909;BME280;57190;47.918;8.112;2023-03-03T13:19:22;90872.66;;;7.70;51.61
69909;BME280;57190;47.918;8.112;2023-03-03T13:21:54;90868.16;;;7.49;52.27
69909;BME280;57190;47.918;8.112;2023-03-03T13:27:24;90869.84;;;7.33;52.73
69909;BME280;57190;47.918;8.112;2023-03-03T13:29:59;90868.78;;;7.34;53.07
69909;BME280;57190;47.918;8.112;2023-03-03T13:37:48;90868.91;;;7.44;53.42
69909;BME280;57190;47.918;8.112;2023-03-03T13:43:18;90868.06;;;7.38;53.66
69909;BME280;57190;47.918;8.112;2023-03-03T13:46:20;90872.53;;;7.38;54.11
69909;BME280;57190;47.918;8.112;2023-03-03T13:49:16;90877.53;;;7.34;52.59
69909;BME280;57190;47.918;8.112;2023-03-03T13:54:39;90872.09;;;7.24;53.59
69909;BME280;57190;47.918;8.112;2023-03-03T13:57:15;90877.97;;;7.26;52.44
69909;BME280;57190;47.918;8.112;2023-03-03T14:07:58;90868.59;;;6.96;53.38
69909;BME280;57190;47.918;8.112;2023-03-03T14:10:30;90872.44;;;6.88;52.19
69909;BME280;57190;47.918;8.112;2023-03-03T14:13:05;90869.06;;;6.76;53.79
69909;BME280;57190;47.918;8.112;2023-03-03T14:16:36;90867.88;;;6.84;53.36
69909;BME280;57190;47.918;8.112;2023-03-03T14:18:32;90862.94;;;6.92;52.89
69909;BME280;57190;47.918;8.112;2023-03-03T14:21:34;90867.13;;;6.88;52.24
69909;BME280;57190;47.918;8.112;2023-03-03T14:24:16;90869.94;;;6.82;53.06
69909;BME280;57190;47.918;8.112;2023-03-03T14:26:50;90875.66;;;6.73;53.32
69909;BME280;57190;47.918;8.112;2023-03-03T14:32:00;90871.34;;;6.67;54.02
69909;BME280;57190;47.918;8.112;2023-03-03T14:37:22;90867.09;;;6.66;53.64
69909;BME280;57190;47.918;8.112;2023-03-03T14:40:00;90872.97;;;6.68;54.36
69909;BME280;57190;47.918;8.112;2023-03-03T14:42:39;90869.84;;;6.54;53.76
69909;BME280;57190;47.918;8.112;2023-03-03T14:45:34;90871.19;;;6.57;53.50
69909;BME280;57190;47.918;8.112;2023-03-03T14:48:22;90876.00;;;6.43;54.79
69909;BME280;57190;47.918;8.112;2023-03-03T14:51:22;90874.59;;;6.35;54.23
69909;BME280;57190;47.918;8.112;2023-03-03T14:53:49;90875.44;;;6.24;54.11
69909;BME280;57190;47.918;8.112;2023-03-03T14:58:50;90873.88;;;6.40;54.50
69909;BME280;57190;47.918;8.112;2023-03-03T15:01:34;90874.25;;;6.14;54.64
69909;BME280;57190;47.918;8.112;2023-03-03T15:04:02;90878.19;;;6.12;54.88
69909;BME280;57190;47.918;8.112;2023-03-03T15:06:55;90877.09;;;5.96;55.38
69909;BME280;57190;47.918;8.112;2023-03-03T15:09:28;90879.56;;;5.86;54.55
69909;BME280;57190;47.918;8.112;2023-03-03T15:11:58;90878.00;;;5.73;55.76
69909;BME280;57190;47.918;8.112;2023-03-03T15:14:48;90876.31;;;5.66;55.40
69909;BME280;57190;47.918;8.112;2023-03-03T15:17:32;90881.94;;;5.70;55.80
69909;BME280;57190;47.918;8.112;2023-03-03T15:20:08;90870.84;;;5.73;55.73
69909;BME280;57190;47.918;8.112;2023-03-03T15:25:08;90869.91;;;5.79;55.30
69909;BME280;57190;47.918;8.112;2023-03-03T15:27:41;90872.16;;;5.71;55.56
69909;BME280;57190;47.918;8.112;2023-03-03T15:30:33;90868.13;;;5.68;54.87
69909;BME280;57190;47.918;8.112;2023-03-03T15:36:38;90879.25;;;5.82;56.38
69909;BME280;57190;47.918;8.112;2023-03-03T15:38:50;90878.91;;;5.78;56.01
69909;BME280;57190;47.918;8.112;2023-03-03T15:44:25;90883.13;;;5.79;55.47
69909;BME280;57190;47.918;8.112;2023-03-03T15:47:10;90881.69;;;5.72;56.50
69909;BME280;57190;47.918;8.112;2023-03-03T15:52:23;90879.69;;;5.50;57.69
69909;BME280;57190;47.918;8.112;2023-03-03T16:00:40;90874.94;;;5.35;57.74
69909;BME280;57190;47.918;8.112;2023-03-03T16:03:18;90875.06;;;5.28;57.54
69909;BME280;57190;47.918;8.112;2023-03-03T16:06:09;90882.41;;;5.26;57.94
69909;BME280;57190;47.918;8.112;2023-03-03T16:16:46;90886.25;;;5.18;58.28
69909;BME280;57190;47.918;8.112;2023-03-03T16:19:43;90882.94;;;5.11;58.76
69909;BME280;57190;47.918;8.112;2023-03-03T16:36:22;90904.22;;;4.81;60.30
69909;BME280;57190;47.918;8.112;2023-03-03T16:39:11;90906.97;;;4.74;60.74
69909;BME280;57190;47.918;8.112;2023-03-03T16:52:49;90924.66;;;4.50;61.60
69909;BME280;57190;47.918;8.112;2023-03-03T16:55:37;90927.97;;;4.45;61.80
69909;BME280;57190;47.918;8.112;2023-03-03T16:58:38;90937.41;;;4.41;61.93
69909;BME280;57190;47.918;8.112;2023-03-03T17:01:20;90932.34;;;4.39;62.00
69909;BME280;57190;47.918;8.112;2023-03-03T17:04:55;90936.03;;;4.38;62.18
69909;BME280;57190;47.918;8.112;2023-03-03T17:12:13;90945.41;;;4.22;62.77
69909;BME280;57190;47.918;8.112;2023-03-03T17:15:14;90952.38;;;4.17;62.87
69909;BME280;57190;47.918;8.112;2023-03-03T17:20:33;90954.31;;;4.09;63.56
69909;BME280;57190;47.918;8.112;2023-03-03T17:28:48;90953.94;;;3.94;64.14